Time;durP1;ratioP1;P1;durP2;ratioP2;P2;SDS_P1;SDS_P2;PMS_P1;PMS_P2;Temp;Humidity;BMP_temperature;BMP_pressure;BME280_temperature;BME280_humidity;BME280_pressure;Samples;Min_cycle;Max_cycle;Signal;HPM_P1;HPM_P2
2021/05/18 00:00:45;;;;;;;19.42;13.85;;;16.60;84.80;;;;;;5139687;27;20043;-36
2021/05/18 00:03:11;;;;;;;15.68;13.35;;;16.60;84.80;;;;;;5139482;27;20414;-36
2021/05/18 00:05:39;;;;;;;16.10;13.10;;;16.60;84.90;;;;;;5139396;27;20031;-38
2021/05/18 00:08:07;;;;;;;20.42;14.25;;;16.60;84.90;;;;;;5139273;27;20027;-37
2021/05/18 00:13:23;;;;;;;15.45;12.70;;;16.70;84.90;;;;;;5139603;27;20034;-37
2021/05/18 00:15:51;;;;;;;20.52;14.90;;;16.60;84.80;;;;;;5138903;27;20035;-38
2021/05/18 00:18:17;;;;;;;17.80;13.60;;;16.60;84.90;;;;;;5139068;27;20023;-36
2021/05/18 00:20:43;;;;;;;24.67;16.65;;;16.60;85.00;;;;;;5139525;27;20030;-36
2021/05/18 00:23:10;;;;;;;22.20;13.60;;;16.70;85.00;;;;;;5139033;27;20027;-38
2021/05/18 00:25:36;;;;;;;21.55;16.50;;;16.60;84.80;;;;;;5139122;27;20038;-36
2021/05/18 00:28:02;;;;;;;19.70;15.73;;;16.60;84.90;;;;;;5139147;27;20031;-36
2021/05/18 00:30:28;;;;;;;19.55;15.48;;;16.60;84.70;;;;;;5139077;27;20035;-36
2021/05/18 00:32:54;;;;;;;25.38;17.73;;;16.50;84.60;;;;;;5138925;27;20022;-38
2021/05/18 00:35:20;;;;;;;18.85;16.67;;;16.50;84.70;;;;;;5138642;27;20027;-36
2021/05/18 00:37:46;;;;;;;19.27;14.63;;;16.50;84.90;;;;;;5138937;27;20080;-36
2021/05/18 00:40:18;;;;;;;17.85;14.43;;;16.40;84.90;;;;;;5138707;27;20039;-36
2021/05/18 00:42:54;;;;;;;22.48;16.55;;;16.40;85.10;;;;;;5138805;27;20050;-36
2021/05/18 00:45:36;;;;;;;21.63;16.75;;;16.40;85.20;;;;;;5138393;27;20027;-38
2021/05/18 00:48:04;;;;;;;15.25;13.45;;;16.40;85.00;;;;;;5138490;27;20039;-38
2021/05/18 00:50:30;;;;;;;17.35;14.38;;;16.40;85.20;;;;;;5138672;27;20076;-38
2021/05/18 00:52:56;;;;;;;19.73;16.38;;;16.40;85.20;;;;;;5137366;27;20401;-36
2021/05/18 01:00:38;;;;;;;19.88;15.32;;;16.30;85.30;;;;;;5138575;27;20054;-36
2021/05/18 01:03:04;;;;;;;23.50;18.27;;;16.30;85.20;;;;;;5138335;27;20456;-38
2021/05/18 01:08:14;;;;;;;18.25;14.77;;;16.30;85.00;;;;;;5138260;27;20037;-38
2021/05/18 01:10:41;;;;;;;20.23;16.02;;;16.30;84.90;;;;;;5138391;27;20318;-36
2021/05/18 01:13:07;;;;;;;21.75;16.48;;;16.30;85.00;;;;;;5138069;27;20027;-37
2021/05/18 01:15:32;;;;;;;20.70;15.77;;;16.30;84.90;;;;;;5138130;27;20284;-39
2021/05/18 01:17:58;;;;;;;19.60;15.27;;;16.30;85.00;;;;;;5137924;27;20039;-39
2021/05/18 01:20:24;;;;;;;18.92;15.93;;;16.30;84.90;;;;;;5138151;27;20481;-38
2021/05/18 01:22:50;;;;;;;19.23;15.65;;;16.30;84.90;;;;;;5138089;27;20035;-38
2021/05/18 01:25:17;;;;;;;18.90;14.63;;;16.30;84.90;;;;;;5138281;27;20031;-36
2021/05/18 01:27:43;;;;;;;19.02;16.00;;;16.30;84.70;;;;;;5137767;27;20027;-36
2021/05/18 01:30:10;;;;;;;19.92;14.65;;;16.30;84.50;;;;;;5137847;27;20023;-36
2021/05/18 01:32:39;;;;;;;17.45;14.63;;;16.30;84.60;;;;;;5137661;27;20054;-36
2021/05/18 01:35:06;;;;;;;30.15;22.35;;;16.30;84.60;;;;;;5137387;27;20438;-36
2021/05/18 01:37:32;;;;;;;26.55;17.23;;;16.30;84.40;;;;;;5137835;27;20319;-36
2021/05/18 01:42:57;;;;;;;24.13;18.58;;;16.30;84.40;;;;;;5119667;27;20032;-36
2021/05/18 01:45:32;;;;;;;24.25;17.65;;;16.20;84.90;;;;;;5137733;27;20028;-36
2021/05/18 01:48:01;;;;;;;24.80;20.77;;;16.20;84.50;;;;;;5137430;27;20343;-38
2021/05/18 01:50:29;;;;;;;24.80;19.05;;;16.20;84.60;;;;;;5137564;27;20092;-36
2021/05/18 01:52:56;;;;;;;22.45;18.13;;;16.20;84.60;;;;;;5137383;27;20426;-36
2021/05/18 01:55:33;;;;;;;19.95;16.13;;;16.20;84.60;;;;;;5137453;27;20076;-36
2021/05/18 01:57:59;;;;;;;20.88;16.77;;;16.10;84.60;;;;;;5137181;27;20024;-38
2021/05/18 02:00:28;;;;;;;19.60;16.85;;;16.10;84.70;;;;;;5137490;27;20486;-38
2021/05/18 02:02:54;;;;;;;23.10;17.63;;;16.10;84.90;;;;;;5137247;27;20100;-38
2021/05/18 02:05:22;;;;;;;20.00;14.43;;;16.10;85.00;;;;;;5137068;27;20027;-36
2021/05/18 02:07:50;;;;;;;17.55;13.93;;;16.10;85.10;;;;;;5137016;27;20031;-38
2021/05/18 02:10:17;;;;;;;22.10;15.18;;;16.20;85.20;;;;;;5137013;27;20031;-39
2021/05/18 02:12:44;;;;;;;19.38;14.90;;;16.10;85.30;;;;;;5137020;27;20030;-39
2021/05/18 02:17:51;;;;;;;19.63;16.33;;;16.20;85.20;;;;;;5137414;27;20038;-38
2021/05/18 02:25:30;;;;;;;17.45;14.10;;;16.20;85.00;;;;;;5137614;27;20395;-38
2021/05/18 02:27:57;;;;;;;19.17;16.67;;;16.20;85.20;;;;;;5136985;27;20039;-36
2021/05/18 02:30:24;;;;;;;17.58;14.00;;;16.20;85.20;;;;;;5136479;27;20058;-38
2021/05/18 02:32:50;;;;;;;19.92;15.73;;;16.20;85.30;;;;;;5137147;27;20065;-38
2021/05/18 02:35:17;;;;;;;20.08;17.35;;;16.20;85.40;;;;;;5136601;28;20483;-36
2021/05/18 02:37:44;;;;;;;21.10;15.00;;;16.20;85.40;;;;;;5136710;27;20024;-36
2021/05/18 02:40:18;;;;;;;22.33;16.65;;;16.20;85.50;;;;;;5136976;28;20050;-36
2021/05/18 02:42:45;;;;;;;19.95;14.68;;;16.30;85.70;;;;;;5136715;27;20045;-38
2021/05/18 02:45:39;;;;;;;18.05;14.25;;;16.30;85.70;;;;;;5136683;28;20058;-38
2021/05/18 02:50:47;;;;;;;19.02;16.20;;;16.40;85.60;;;;;;5126016;28;20079;-38
2021/05/18 02:53:13;;;;;;;19.73;17.58;;;16.40;85.70;;;;;;5136458;27;20434;-36
2021/05/18 02:55:58;;;;;;;25.48;20.23;;;16.40;85.80;;;;;;5136538;28;20111;-38
2021/05/18 02:58:25;;;;;;;20.92;18.25;;;16.50;85.80;;;;;;5136810;27;20038;-38
2021/05/18 03:00:51;;;;;;;25.15;19.48;;;16.50;85.70;;;;;;5136618;28;20335;-39
2021/05/18 03:03:17;;;;;;;28.65;20.63;;;16.50;85.70;;;;;;5136711;27;20079;-39
2021/05/18 03:05:44;;;;;;;23.27;19.17;;;16.50;85.70;;;;;;5136469;28;20031;-36
2021/05/18 03:08:11;;;;;;;19.25;17.20;;;16.50;85.70;;;;;;5136198;27;20030;-38
2021/05/18 03:10:37;;;;;;;24.30;20.45;;;16.50;85.60;;;;;;5136486;28;20126;-36
2021/05/18 03:13:04;;;;;;;19.83;16.75;;;16.60;85.70;;;;;;5136660;27;20356;-36
2021/05/18 03:15:31;;;;;;;19.08;16.00;;;16.60;85.70;;;;;;5137099;27;20023;-36
2021/05/18 03:17:57;;;;;;;16.83;14.15;;;16.60;85.70;;;;;;5140746;27;20023;-36
2021/05/18 03:20:23;;;;;;;17.30;14.93;;;16.60;85.70;;;;;;5120002;27;20028;-38
2021/05/18 03:22:50;;;;;;;17.83;14.35;;;16.60;85.80;;;;;;5119422;28;20028;-38
2021/05/18 03:25:16;;;;;;;23.67;18.13;;;16.70;85.90;;;;;;5119387;28;20039;-39
2021/05/18 03:27:42;;;;;;;27.48;20.75;;;16.70;86.00;;;;;;5119613;28;20046;-38
2021/05/18 03:35:29;;;;;;;33.38;25.33;;;16.70;86.00;;;;;;5119781;28;20038;-38
2021/05/18 03:37:57;;;;;;;25.20;22.25;;;16.80;86.00;;;;;;5119322;28;20077;-38
2021/05/18 03:40:25;;;;;;;22.98;20.40;;;16.80;86.00;;;;;;5119289;28;20036;-39
2021/05/18 03:43:21;;;;;;;27.48;23.23;;;16.80;86.20;;;;;;5119629;28;20365;-38
2021/05/18 03:45:44;;;;;;;26.98;22.92;;;16.80;86.30;;;;;;5117717;28;20028;-39
2021/05/18 04:04:32;;;;;;;20.10;14.40;;;16.90;85.90;;;;;;5119166;28;20039;-36
2021/05/18 04:17:41;;;;;;;16.70;11.73;;;16.90;86.30;;;;;;5115402;28;20369;-36
2021/05/18 04:20:21;;;;;;;15.07;12.07;;;16.90;86.40;;;;;;5118435;28;20042;-36
2021/05/18 04:39:06;;;;;;;16.45;13.52;;;17.00;87.30;;;;;;5117920;28;20077;-38
2021/05/18 04:52:36;;;;;;;15.25;12.13;;;17.10;87.40;;;;;;5117532;28;20054;-36
2021/05/18 05:00:15;;;;;;;15.93;11.57;;;17.20;87.40;;;;;;5117618;28;20475;-38
2021/05/18 05:08:29;;;;;;;21.15;11.93;;;17.20;87.40;;;;;;5116843;28;20035;-38
2021/05/18 05:16:05;;;;;;;13.48;11.70;;;17.40;87.80;;;;;;5117537;28;20047;-36
2021/05/18 05:18:30;;;;;;;16.30;11.52;;;17.40;87.60;;;;;;5117078;28;20027;-36
2021/05/18 05:20:56;;;;;;;16.92;11.45;;;17.40;87.60;;;;;;5117061;28;20050;-36
2021/05/18 05:23:22;;;;;;;13.38;11.07;;;17.40;87.40;;;;;;5117059;28;20058;-38
2021/05/18 05:25:47;;;;;;;14.48;11.50;;;17.50;87.20;;;;;;5117060;28;20032;-39
2021/05/18 05:28:13;;;;;;;14.23;11.23;;;17.50;87.00;;;;;;5116694;28;20027;-36
2021/05/18 05:30:39;;;;;;;24.70;13.68;;;17.40;86.90;;;;;;5114328;28;20085;-39
2021/05/18 05:33:05;;;;;;;15.23;12.48;;;17.50;87.00;;;;;;5116656;28;20113;-36
2021/05/18 05:35:30;;;;;;;23.67;15.93;;;17.50;87.00;;;;;;5116563;28;20024;-38
2021/05/18 05:37:57;;;;;;;17.38;14.00;;;17.50;87.00;;;;;;5116140;28;20015;-36
2021/05/18 05:40:23;;;;;;;17.65;15.15;;;17.60;86.80;;;;;;5116696;28;20073;-38
2021/05/18 05:42:49;;;;;;;22.52;16.67;;;17.60;86.80;;;;;;5116321;28;20415;-36
2021/05/18 05:45:14;;;;;;;19.15;12.75;;;17.60;86.90;;;;;;5116571;28;20160;-38
2021/05/18 05:47:40;;;;;;;14.60;10.80;;;17.60;86.80;;;;;;5116282;28;20176;-38
2021/05/18 05:50:07;;;;;;;17.15;14.82;;;17.70;86.70;;;;;;5116720;28;20028;-37
2021/05/18 05:52:34;;;;;;;15.55;13.85;;;17.70;86.90;;;;;;5116053;28;20027;-37
2021/05/18 05:55:00;;;;;;;17.42;13.15;;;17.70;86.90;;;;;;5116483;28;20374;-39
2021/05/18 05:57:26;;;;;;;23.38;15.60;;;17.80;86.70;;;;;;5115849;28;20095;-37
2021/05/18 05:59:51;;;;;;;28.67;20.27;;;17.80;86.90;;;;;;5115926;28;20051;-37
2021/05/18 06:02:17;;;;;;;26.52;19.80;;;17.90;86.70;;;;;;5115967;28;20031;-40
2021/05/18 06:04:43;;;;;;;25.55;17.67;;;18.00;86.70;;;;;;5116429;28;20028;-37
2021/05/18 06:07:09;;;;;;;20.35;14.38;;;18.00;86.70;;;;;;5115693;28;20397;-37
2021/05/18 06:09:36;;;;;;;26.55;15.80;;;18.10;86.30;;;;;;5097746;28;20116;-37
2021/05/18 06:47:37;;;;;;;10.70;7.07;;;18.90;82.20;;;;;;5115377;28;20057;-37
2021/05/18 06:52:44;;;;;;;11.68;7.25;;;18.90;81.80;;;;;;5119393;28;19965;-39
2021/05/18 06:55:13;;;;;;;;;;;18.90;81.70;;;;;;5120023;28;20297;-40
2021/05/18 06:57:46;;;;;;;16.60;8.70;;;19.00;82.30;;;;;;5119066;28;19911;-39
2021/05/18 07:00:18;;;;;;;10.55;7.03;;;19.10;82.70;;;;;;5118524;28;20082;-40
2021/05/18 07:02:45;;;;;;;17.63;9.15;;;19.20;81.80;;;;;;5119511;28;20081;-41
2021/05/18 07:05:20;;;;;;;38.00;12.40;;;19.30;81.00;;;;;;5119119;28;20036;-37
2021/05/18 07:07:50;;;;;;;13.15;7.10;;;19.30;80.70;;;;;;5119124;28;20428;-37
2021/05/18 07:10:15;;;;;;;20.90;9.45;;;19.40;80.70;;;;;;5118995;28;20063;-38
2021/05/18 07:12:41;;;;;;;9.35;6.30;;;19.50;79.20;;;;;;5119106;28;20051;-40
2021/05/18 07:15:07;;;;;;;8.95;6.68;;;19.50;78.00;;;;;;5131301;27;20109;-39
2021/05/18 07:17:33;;;;;;;15.98;11.95;;;19.60;76.90;;;;;;5139128;27;20050;-37
2021/05/18 07:19:59;;;;;;;9.82;5.53;;;19.50;76.30;;;;;;5123142;27;20061;-37
2021/05/18 07:22:24;;;;;;;10.38;5.88;;;19.50;76.30;;;;;;5119133;28;20318;-39
2021/05/18 07:24:50;;;;;;;13.57;7.05;;;19.50;76.30;;;;;;5118829;28;20024;-37
2021/05/18 07:27:16;;;;;;;8.13;6.32;;;19.60;76.80;;;;;;5119188;28;20128;-39
2021/05/18 07:29:41;;;;;;;10.68;6.60;;;19.60;76.40;;;;;;5119162;28;20324;-37
2021/05/18 07:32:07;;;;;;;11.85;8.95;;;19.70;76.30;;;;;;5118215;28;20027;-35
2021/05/18 07:34:33;;;;;;;9.95;6.43;;;19.70;76.50;;;;;;5118462;28;20031;-37
2021/05/18 07:36:58;;;;;;;8.50;5.97;;;19.90;75.40;;;;;;5118934;28;20411;-37
2021/05/18 07:39:24;;;;;;;11.18;5.93;;;19.90;74.60;;;;;;5118335;28;20027;-37
2021/05/18 07:41:50;;;;;;;14.80;9.23;;;20.00;74.30;;;;;;5118457;28;20034;-39
2021/05/18 07:44:16;;;;;;;8.98;5.72;;;20.00;74.40;;;;;;5118440;28;20024;-39
2021/05/18 07:46:43;;;;;;;11.77;7.07;;;20.10;74.10;;;;;;5118909;28;20320;-37
2021/05/18 07:49:45;;;;;;;8.98;4.55;;;20.20;74.20;;;;;;5118469;28;20026;-39
2021/05/18 08:05:29;;;;;;;11.98;5.97;;;20.60;71.00;;;;;;5118603;28;20054;-37
2021/05/18 08:07:55;;;;;;;6.63;4.05;;;20.60;71.00;;;;;;5100620;28;20396;-39
2021/05/18 08:10:25;;;;;;;5.57;3.05;;;20.70;70.90;;;;;;5118219;28;20032;-39
2021/05/18 08:12:50;;;;;;;7.43;3.25;;;20.70;70.00;;;;;;5118325;28;20049;-39
2021/05/18 09:50:34;;;;;;;13.07;7.72;;;21.50;70.70;;;;;;5115966;28;20446;-35
2021/05/18 10:36:27;;;;;;;16.63;11.32;;;22.70;67.80;;;;;;5116249;28;20039;-35
2021/05/18 10:39:20;;;;;;;11.60;9.30;;;22.70;67.90;;;;;;5107672;28;20036;-35
2021/05/18 10:41:46;;;;;;;10.43;7.95;;;22.60;68.00;;;;;;5115311;28;20118;-37
2021/05/18 10:44:12;;;;;;;8.93;6.32;;;22.60;68.10;;;;;;5115370;28;20063;-37
2021/05/18 10:46:48;;;;;;;7.05;5.85;;;22.60;68.30;;;;;;5115154;28;20431;-37
2021/05/18 10:49:17;;;;;;;8.50;5.60;;;22.70;68.10;;;;;;5115580;28;20039;-37
2021/05/18 10:51:48;;;;;;;8.02;6.18;;;22.80;68.00;;;;;;5114922;28;20031;-35
2021/05/18 10:54:18;;;;;;;10.25;6.32;;;22.80;67.60;;;;;;5115504;28;20016;-37
2021/05/18 10:56:53;;;;;;;;;;;22.90;67.50;;;;;;5115845;28;20399;-37
2021/05/18 10:59:30;;;;;;;7.70;6.75;;;22.90;68.00;;;;;;5114895;28;19957;-37
2021/05/18 11:02:06;;;;;;;7.82;6.03;;;23.00;67.60;;;;;;5115369;28;20055;-37
2021/05/18 11:04:35;;;;;;;10.82;6.97;;;23.20;66.60;;;;;;5115597;28;20036;-37
2021/05/18 11:07:03;;;;;;;12.38;9.55;;;23.20;66.60;;;;;;5114981;28;20114;-36
2021/05/18 11:09:29;;;;;;;13.85;7.70;;;23.30;66.20;;;;;;5115747;28;20385;-36
2021/05/18 11:12:24;;;;;;;9.30;6.22;;;23.40;66.10;;;;;;5115247;28;20024;-36
2021/05/18 11:15:02;;;;;;;9.60;6.25;;;23.60;65.80;;;;;;5112575;28;20031;-36
2021/05/18 11:17:39;;;;;;;12.23;8.27;;;23.60;65.20;;;;;;5115084;28;20035;-36
2021/05/18 11:20:16;;;;;;;13.18;9.40;;;23.60;65.00;;;;;;5115616;28;20028;-37
2021/05/18 11:26:01;;;;;;;10.93;7.68;;;23.60;64.30;;;;;;5117421;28;20442;-37
2021/05/18 11:28:34;;;;;;;9.80;7.55;;;23.60;64.40;;;;;;5114562;28;20023;-35
2021/05/18 11:31:02;;;;;;;7.93;5.53;;;23.50;64.20;;;;;;5126485;28;20038;-37
2021/05/18 11:33:32;;;;;;;9.63;6.88;;;23.40;64.20;;;;;;5109386;28;20024;-37
2021/05/18 11:36:04;;;;;;;9.15;5.90;;;23.30;64.30;;;;;;5114975;28;20032;-35
2021/05/18 11:38:30;;;;;;;5.35;4.47;;;23.30;64.50;;;;;;5136806;27;20029;-36
2021/05/18 11:40:57;;;;;;;8.05;5.30;;;23.20;64.80;;;;;;5138865;27;20031;-38
2021/05/18 11:43:26;;;;;;;8.50;5.10;;;23.20;65.20;;;;;;5136861;27;20373;-35
2021/05/18 11:46:11;;;;;;;7.55;5.28;;;23.30;65.10;;;;;;5139719;27;20028;-38
2021/05/18 11:49:00;;;;;;;6.25;5.07;;;23.40;64.90;;;;;;5139410;27;20031;-42
2021/05/18 11:51:30;;;;;;;8.63;6.28;;;23.50;64.60;;;;;;5132583;27;20122;-36
2021/05/18 11:54:03;;;;;;;11.57;7.60;;;23.50;63.90;;;;;;5119067;28;20055;-36
2021/05/18 11:56:31;;;;;;;10.55;5.97;;;23.50;64.00;;;;;;5118837;28;20032;-36
2021/05/18 11:59:05;;;;;;;8.02;5.30;;;23.40;64.20;;;;;;5118456;28;20063;-37
2021/05/18 12:01:52;;;;;;;7.03;5.30;;;23.50;64.20;;;;;;5117906;27;20063;-36
2021/05/18 12:04:19;;;;;;;8.50;5.00;;;23.50;63.90;;;;;;5100344;28;20077;-37
2021/05/18 12:07:04;;;;;;;8.07;5.07;;;23.50;63.70;;;;;;5117645;28;20024;-37
2021/05/18 12:09:33;;;;;;;9.40;5.03;;;23.50;63.60;;;;;;5125989;27;20035;-38
2021/05/18 12:12:01;;;;;;;14.57;10.27;;;23.40;63.60;;;;;;5139043;27;20118;-38
2021/05/18 12:14:28;;;;;;;7.93;5.32;;;23.30;63.70;;;;;;5138981;27;20046;-38
2021/05/18 12:16:53;;;;;;;8.18;4.90;;;23.30;63.70;;;;;;5139120;27;20326;-36
2021/05/18 12:19:20;;;;;;;10.70;7.60;;;23.30;63.70;;;;;;5125393;27;20023;-37
2021/05/18 12:21:52;;;;;;;10.75;8.13;;;23.20;63.50;;;;;;5118314;28;20043;-36
2021/05/18 12:24:28;;;;;;;10.10;6.90;;;23.10;63.20;;;;;;5118020;28;20569;-37
2021/05/18 12:26:59;;;;;;;11.93;8.30;;;22.90;63.40;;;;;;5117995;28;20059;-37
2021/05/18 12:29:51;;;;;;;23.52;18.27;;;22.80;63.70;;;;;;5117534;28;20036;-38
2021/05/18 12:32:21;;;;;;;13.95;10.80;;;22.60;63.70;;;;;;5117723;28;20035;-36
2021/05/18 12:34:56;;;;;;;12.18;8.95;;;22.40;64.10;;;;;;5118024;28;20028;-38
2021/05/18 12:37:45;;;;;;;9.10;7.88;;;22.30;64.40;;;;;;5117928;28;20386;-37
2021/05/18 12:40:14;;;;;;;12.18;8.73;;;22.20;64.70;;;;;;5118062;28;20054;-37
2021/05/18 12:42:44;;;;;;;9.15;7.95;;;22.10;65.00;;;;;;5118214;28;20024;-37
2021/05/18 12:45:20;;;;;;;8.55;7.28;;;22.00;65.30;;;;;;5117974;28;20038;-36
2021/05/18 12:47:54;;;;;;;10.57;6.50;;;21.80;65.50;;;;;;5117476;28;20411;-37
2021/05/18 12:50:20;;;;;;;10.95;5.63;;;21.70;65.70;;;;;;5117806;28;20032;-38
2021/05/18 12:52:50;;;;;;;9.38;7.05;;;21.70;65.90;;;;;;5117281;28;20106;-38
2021/05/18 12:55:23;;;;;;;11.85;9.60;;;21.60;66.00;;;;;;5117717;28;20106;-36
2021/05/18 12:58:06;;;;;;;10.90;8.32;;;21.60;66.40;;;;;;5117142;28;20027;-37
2021/05/18 13:00:36;;;;;;;9.68;7.63;;;21.60;66.80;;;;;;5117171;28;20066;-39
2021/05/18 13:03:10;;;;;;;9.68;6.38;;;21.50;66.80;;;;;;5117168;28;20034;-38
2021/05/18 13:05:36;;;;;;;12.98;6.20;;;21.50;66.80;;;;;;5117281;28;20111;-38
2021/05/18 13:08:14;;;;;;;10.57;7.80;;;21.60;66.40;;;;;;5116833;28;20102;-38
2021/05/18 13:13:22;;;;;;;9.25;3.90;;;21.50;63.60;;;;;;5116566;28;20095;-36
2021/05/18 13:15:49;;;;;;;6.82;3.60;;;21.40;60.90;;;;;;5116878;28;20395;-36
2021/05/18 13:18:15;;;;;;;15.05;4.55;;;21.30;60.00;;;;;;5116445;28;20448;-36
2021/05/18 13:20:46;;;;;;;11.82;4.60;;;21.20;61.70;;;;;;5117309;28;20035;-36
2021/05/18 13:23:22;;;;;;;5.50;3.25;;;21.00;63.80;;;;;;5117064;28;20320;-36
2021/05/18 13:28:35;;;;;;;11.23;5.55;;;20.60;64.70;;;;;;5118329;27;20062;-36
2021/05/18 13:31:01;;;;;;;8.25;5.63;;;20.20;66.40;;;;;;5137378;27;20364;-36
2021/05/18 13:33:26;;;;;;;8.02;5.97;;;20.00;67.20;;;;;;5124862;27;20063;-36
2021/05/18 13:35:52;;;;;;;6.60;4.68;;;19.70;68.10;;;;;;5116609;28;20032;-35
2021/05/18 13:38:18;;;;;;;5.25;3.20;;;19.50;68.10;;;;;;5116174;27;20047;-36
2021/05/18 13:40:43;;;;;;;7.15;4.60;;;19.20;68.70;;;;;;5098267;28;20038;-36
2021/05/18 13:43:09;;;;;;;10.23;6.00;;;19.00;69.60;;;;;;5116162;28;20143;-36
2021/05/18 13:45:35;;;;;;;7.00;4.57;;;18.90;69.70;;;;;;5116254;28;20058;-36
2021/05/18 13:48:01;;;;;;;8.45;5.50;;;18.80;69.50;;;;;;5115220;28;20047;-35
2021/05/18 13:50:28;;;;;;;5.47;4.88;;;18.60;70.10;;;;;;5115880;28;20031;-35
2021/05/18 13:52:55;;;;;;;10.15;5.50;;;18.50;70.80;;;;;;5115427;28;20019;-35
2021/05/18 13:55:21;;;;;;;10.05;4.18;;;18.40;71.50;;;;;;5116215;28;20472;-35
2021/05/18 13:57:48;;;;;;;8.30;3.80;;;18.30;72.60;;;;;;5115451;28;20317;-36
2021/05/18 14:00:16;;;;;;;8.55;5.43;;;18.20;72.60;;;;;;5097033;28;20096;-36
2021/05/18 14:02:43;;;;;;;6.40;4.63;;;18.10;73.50;;;;;;5115425;28;20047;-36
2021/05/18 14:05:13;;;;;;;9.13;5.45;;;18.00;74.40;;;;;;5116092;27;20030;-36
2021/05/18 14:11:02;;;;;;;;;;;17.80;75.50;;;;;;5033608;28;20114;-36
2021/05/18 14:13:31;;;;;;;6.85;4.95;;;17.70;74.90;;;;;;5099978;28;19919;-36
2021/05/18 14:15:57;;;;;;;10.07;5.72;;;17.60;76.00;;;;;;5116162;28;20422;-36
2021/05/18 14:18:23;;;;;;;8.40;5.05;;;17.50;76.70;;;;;;5115775;28;20036;-36
2021/05/18 14:20:49;;;;;;;7.82;5.90;;;17.50;77.80;;;;;;5116212;28;20039;-36
2021/05/18 14:23:19;;;;;;;11.27;7.30;;;17.40;78.40;;;;;;5097346;28;20073;-35
2021/05/18 14:25:45;;;;;;;8.82;5.65;;;17.40;79.00;;;;;;5111918;28;20039;-36
2021/05/18 14:28:10;;;;;;;17.63;8.52;;;17.30;79.20;;;;;;5114255;27;20039;-35
2021/05/18 14:30:36;;;;;;;18.83;10.60;;;17.30;79.60;;;;;;5133283;27;20054;-35
2021/05/18 14:33:02;;;;;;;23.98;10.43;;;17.30;79.70;;;;;;5135178;27;20023;-36
2021/05/18 14:35:28;;;;;;;18.42;10.15;;;17.30;79.50;;;;;;5135894;27;20067;-35
2021/05/18 14:38:01;;;;;;;17.90;9.18;;;17.20;79.80;;;;;;5119277;27;20024;-35
2021/05/18 14:40:43;;;;;;;18.95;10.20;;;17.30;80.50;;;;;;5114858;28;20112;-35
2021/05/18 14:45:57;;;;;;;35.15;18.98;;;17.20;81.30;;;;;;5128894;28;20035;-35
2021/05/18 14:56:11;;;;;;;59.97;27.50;;;17.40;82.40;;;;;;5129575;28;20023;-36
2021/05/18 14:58:37;;;;;;;63.80;28.48;;;17.50;82.50;;;;;;5117638;28;20098;-36
2021/05/18 15:01:04;;;;;;;61.30;27.30;;;17.60;82.60;;;;;;5135246;28;20134;-36
2021/05/18 15:03:32;;;;;;;77.35;30.52;;;17.70;82.60;;;;;;5134427;28;20027;-36
2021/05/18 15:06:01;;;;;;;87.53;35.88;;;17.70;82.80;;;;;;5136013;28;20341;-36
2021/05/18 15:08:27;;;;;;;82.53;34.10;;;17.80;82.80;;;;;;5135312;28;20019;-36
2021/05/18 15:10:57;;;;;;;77.43;33.25;;;17.80;83.20;;;;;;5136380;27;20144;-36
2021/05/18 15:13:23;;;;;;;79.07;33.10;;;17.90;82.70;;;;;;5139045;27;20031;-36
2021/05/18 15:15:48;;;;;;;72.82;30.95;;;17.90;82.70;;;;;;5138361;27;20035;-36
2021/05/18 15:18:14;;;;;;;84.30;31.80;;;18.00;82.80;;;;;;5138353;27;20368;-36
2021/05/18 15:20:40;;;;;;;83.72;31.67;;;18.10;83.20;;;;;;5138498;27;20360;-36
2021/05/18 15:23:06;;;;;;;71.28;28.73;;;18.10;82.90;;;;;;5138072;27;20031;-36
2021/05/18 15:25:31;;;;;;;97.30;32.58;;;18.20;82.30;;;;;;5138346;27;20066;-36
2021/05/18 15:27:57;;;;;;;91.45;32.00;;;18.30;83.40;;;;;;5137552;27;20031;-36
2021/05/18 15:30:23;;;;;;;53.60;20.98;;;18.40;84.20;;;;;;5137264;27;20041;-36
2021/05/18 15:32:49;;;;;;;46.67;17.85;;;18.50;83.50;;;;;;5139312;27;20023;-36
2021/05/18 15:35:15;;;;;;;31.92;13.40;;;18.60;83.10;;;;;;5139882;27;20318;-36
2021/05/18 15:37:44;;;;;;;36.88;15.38;;;18.70;82.00;;;;;;5139439;27;20076;-36
2021/05/18 15:40:12;;;;;;;26.33;12.75;;;18.80;82.40;;;;;;5139323;27;20030;-36
2021/05/18 15:42:38;;;;;;;28.48;11.50;;;18.90;82.10;;;;;;5139616;27;20479;-36
2021/05/18 15:45:05;;;;;;;23.50;10.88;;;19.00;82.30;;;;;;5139882;27;20054;-36
2021/05/18 15:47:32;;;;;;;31.40;11.07;;;19.00;82.00;;;;;;5139976;27;20027;-36
2021/05/18 15:49:58;;;;;;;20.50;9.90;;;19.10;81.60;;;;;;5139799;27;20035;-36
2021/05/18 15:52:24;;;;;;;18.55;9.80;;;19.10;81.30;;;;;;5139198;27;20065;-36
2021/05/18 15:54:49;;;;;;;20.52;10.82;;;19.20;81.20;;;;;;5139695;27;20073;-36
2021/05/18 15:57:16;;;;;;;15.13;9.13;;;19.20;81.60;;;;;;5139263;27;20347;-36
2021/05/18 15:59:47;;;;;;;14.90;10.15;;;19.20;80.70;;;;;;5139344;27;20068;-36
2021/05/18 16:02:13;;;;;;;17.38;10.52;;;19.30;80.50;;;;;;5139553;27;20471;-36
2021/05/18 16:04:39;;;;;;;23.70;10.15;;;19.30;79.90;;;;;;5139371;27;20104;-36
2021/05/18 16:07:07;;;;;;;30.20;13.30;;;19.30;79.80;;;;;;5139265;27;20424;-36
2021/05/18 16:09:33;;;;;;;28.48;14.35;;;19.30;80.00;;;;;;5139284;27;20034;-36
2021/05/18 16:11:58;;;;;;;31.15;16.10;;;19.30;79.60;;;;;;5138876;27;20023;-36
2021/05/18 16:14:24;;;;;;;42.28;19.05;;;19.30;79.90;;;;;;5139201;27;20035;-36
2021/05/18 16:16:51;;;;;;;38.78;18.90;;;19.30;79.30;;;;;;5139070;27;20027;-36
2021/05/18 16:19:16;;;;;;;28.45;13.38;;;19.30;79.20;;;;;;5139190;27;20019;-36
2021/05/18 16:21:42;;;;;;;25.27;11.23;;;19.30;79.60;;;;;;5138667;27;20438;-36
2021/05/18 16:24:08;;;;;;;17.88;9.90;;;19.20;79.40;;;;;;5138274;27;20023;-36
2021/05/18 16:26:34;;;;;;;18.00;7.97;;;19.30;79.20;;;;;;5138634;27;20411;-36
2021/05/18 16:29:01;;;;;;;21.10;8.52;;;19.20;79.10;;;;;;5138527;27;20038;-36
2021/05/18 16:31:28;;;;;;;17.77;6.47;;;19.20;79.20;;;;;;5138493;27;20430;-36
2021/05/18 16:33:55;;;;;;;13.93;6.80;;;19.20;79.00;;;;;;5138770;27;20054;-36
2021/05/18 16:36:21;;;;;;;16.92;6.53;;;19.20;78.70;;;;;;5138318;27;20023;-36
2021/05/18 16:38:47;;;;;;;11.98;6.35;;;19.20;78.80;;;;;;5138812;27;20051;-36
2021/05/18 16:41:13;;;;;;;21.15;7.68;;;19.10;78.30;;;;;;5138412;27;20066;-36
2021/05/18 16:43:39;;;;;;;26.02;7.40;;;19.00;78.50;;;;;;5139195;27;20031;-36
2021/05/18 16:46:07;;;;;;;16.52;8.13;;;19.00;78.80;;;;;;5138141;27;20441;-36
2021/05/18 16:48:32;;;;;;;26.67;9.70;;;19.00;79.10;;;;;;5138447;27;20046;-36
2021/05/18 16:51:01;;;;;;;22.52;9.82;;;18.90;79.20;;;;;;5120182;27;20035;-36
2021/05/18 16:53:27;;;;;;;26.05;11.20;;;18.80;78.90;;;;;;5138508;27;20104;-36
2021/05/18 16:55:53;;;;;;;28.90;13.38;;;18.80;79.00;;;;;;5138384;27;20053;-36
2021/05/18 16:58:20;;;;;;;26.95;12.48;;;18.70;78.90;;;;;;5138755;27;20019;-36
2021/05/18 17:00:46;;;;;;;28.55;14.15;;;18.60;79.20;;;;;;5138245;27;20068;-37
2021/05/18 17:03:12;;;;;;;36.05;17.50;;;18.60;79.80;;;;;;5137749;27;20076;-36
2021/05/18 17:05:38;;;;;;;33.15;16.05;;;18.50;80.20;;;;;;5138038;27;20027;-36
2021/05/18 17:08:04;;;;;;;37.35;18.88;;;18.50;80.10;;;;;;5138137;27;20342;-36
2021/05/18 17:10:37;;;;;;;33.33;16.75;;;18.50;80.00;;;;;;5138193;27;20027;-36
2021/05/18 17:13:03;;;;;;;39.25;18.52;;;18.50;79.50;;;;;;5138599;27;20102;-36
2021/05/18 17:15:29;;;;;;;33.28;15.82;;;18.40;79.50;;;;;;5138719;27;20110;-36
2021/05/18 17:17:56;;;;;;;29.45;14.32;;;18.40;79.40;;;;;;5138282;27;20098;-36
2021/05/18 17:20:24;;;;;;;35.45;15.10;;;18.40;79.60;;;;;;5137955;27;20031;-36
2021/05/18 17:22:49;;;;;;;43.67;18.15;;;18.30;79.80;;;;;;5138128;27;20053;-36
2021/05/18 17:25:16;;;;;;;39.20;17.85;;;18.30;80.40;;;;;;5138027;27;20070;-36
2021/05/18 17:27:43;;;;;;;37.95;17.70;;;18.30;79.90;;;;;;5138117;27;20034;-36
2021/05/18 17:30:12;;;;;;;47.08;21.20;;;18.20;79.60;;;;;;5137957;27;20121;-36
2021/05/18 17:32:37;;;;;;;61.78;25.73;;;18.20;79.70;;;;;;5137518;27;20042;-36
2021/05/18 17:35:07;;;;;;;60.72;25.42;;;18.20;79.60;;;;;;5136884;27;20043;-36
2021/05/18 17:37:34;;;;;;;64.90;26.85;;;18.20;79.70;;;;;;5137682;27;20061;-36
2021/05/18 17:40:00;;;;;;;64.75;27.60;;;18.10;79.60;;;;;;5137345;27;20037;-36
2021/05/18 17:42:26;;;;;;;63.45;26.55;;;18.10;79.80;;;;;;5137359;27;20423;-36
2021/05/18 17:44:57;;;;;;;67.18;27.42;;;18.10;79.80;;;;;;5137544;27;20026;-36
2021/05/18 17:47:23;;;;;;;67.97;29.27;;;18.10;79.70;;;;;;5137926;27;20038;-36
2021/05/18 17:49:48;;;;;;;76.15;29.13;;;18.00;80.00;;;;;;5137333;27;20415;-36
2021/05/18 17:52:14;;;;;;;62.53;28.13;;;18.00;80.10;;;;;;5137058;27;20113;-36